Terminal Aerodrome Forecast
Issued by NWS

Home | Current Version | Previous Version | Text Only | Print | Product List | Glossary Off
Versions: 1 2 3 4 5 6 7 8 9 10 11 12 13 14 15 16 17

000
FTUS43 KIWX 241700
TAFSBN
TAF
KSBN 241720Z 2418/2518 35008KT P6SM SCT050
     FM250100 00000KT P6SM SCT250
     FM251300 20008KT P6SM SCT100 BKN200=

USA.gov is the U.S. government's official web portal to all federal, state and local government web resources and services.